Time;durP1;ratioP1;P1;durP2;ratioP2;P2;SDS_P1;SDS_P2;PMS_P1;PMS_P2;Temp;Humidity;BMP_temperature;BMP_pressure;BME280_temperature;BME280_humidity;BME280_pressure;Samples;Min_cycle;Max_cycle;Signal;HPM_P1;HPM_P2
2023/11/05 00:00:31;;;;;;;2.08;0.82;;;;;;;;;;5025003;28;20385;-48
2023/11/05 00:02:57;;;;;;;0.60;0.60;;;;;;;;;;5020746;28;20033;-47
2023/11/05 00:05:24;;;;;;;2.08;0.50;;;;;;;;;;5048134;28;20029;-46
2023/11/05 00:07:50;;;;;;;1.65;0.50;;;;;;;;;;5018168;28;20117;-48
2023/11/05 00:10:16;;;;;;;1.42;0.73;;;;;;;;;;5026515;28;20057;-47
2023/11/05 00:12:42;;;;;;;0.75;0.68;;;;;;;;;;5019523;28;20033;-47
2023/11/05 00:15:09;;;;;;;0.68;0.60;;;;;;;;;;5030576;28;20034;-48
2023/11/05 00:17:35;;;;;;;0.88;0.57;;;;;;;;;;5025794;28;20055;-47
2023/11/05 00:20:07;;;;;;;1.00;0.82;;;;;;;;;;5053041;28;20550;-48
2023/11/05 00:22:34;;;;;;;0.70;0.60;;;;;;;;;;5052757;28;20025;-47
2023/11/05 00:25:00;;;;;;;1.25;0.65;;;;;;;;;;5052926;28;20025;-47
2023/11/05 00:27:26;;;;;;;1.25;0.68;;;;;;;;;;5052859;28;20032;-47
2023/11/05 00:29:54;;;;;;;2.05;0.68;;;;;;;;;;5052888;28;20036;-48
2023/11/05 00:32:20;;;;;;;1.17;1.08;;;;;;;;;;5052620;28;20475;-46
2023/11/05 00:34:46;;;;;;;1.88;0.70;;;;;;;;;;5034480;28;20040;-48
2023/11/05 00:37:13;;;;;;;0.90;0.80;;;;;;;;;;5035032;28;20554;-47
2023/11/05 00:39:40;;;;;;;2.72;0.60;;;;;;;;;;5035162;28;20418;-47
2023/11/05 00:42:06;;;;;;;2.53;0.82;;;;;;;;;;5029232;28;20476;-47
2023/11/05 00:44:32;;;;;;;1.58;0.65;;;;;;;;;;4995671;28;20467;-47
2023/11/05 00:46:58;;;;;;;0.75;0.52;;;;;;;;;;4992718;28;20039;-49
2023/11/05 00:49:25;;;;;;;2.17;0.50;;;;;;;;;;4992988;28;20030;-48
2023/11/05 00:51:51;;;;;;;0.95;0.40;;;;;;;;;;5014678;28;20554;-48
2023/11/05 00:54:17;;;;;;;1.38;0.40;;;;;;;;;;5012750;28;20036;-49
2023/11/05 00:56:43;;;;;;;1.23;0.30;;;;;;;;;;5001050;28;20038;-48
2023/11/05 00:59:10;;;;;;;0.60;0.30;;;;;;;;;;5016909;28;20030;-49
2023/11/05 01:01:36;;;;;;;1.80;0.40;;;;;;;;;;5014183;28;20033;-50
2023/11/05 01:04:02;;;;;;;0.22;0.22;;;;;;;;;;5025685;28;20034;-50
2023/11/05 01:06:28;;;;;;;0.33;0.23;;;;;;;;;;5030606;28;20155;-50
2023/11/05 01:08:55;;;;;;;1.58;0.40;;;;;;;;;;4985021;28;20273;-49
2023/11/05 01:11:21;;;;;;;0.80;0.52;;;;;;;;;;5006455;28;20025;-49
2023/11/05 01:13:47;;;;;;;0.38;0.38;;;;;;;;;;5003575;28;20092;-48
2023/11/05 01:16:13;;;;;;;0.75;0.63;;;;;;;;;;5002933;28;20021;-50
2023/11/05 01:18:39;;;;;;;0.45;0.20;;;;;;;;;;5030120;28;20475;-49
2023/11/05 01:21:05;;;;;;;0.57;0.45;;;;;;;;;;5003988;28;20038;-49
2023/11/05 01:23:32;;;;;;;0.88;0.40;;;;;;;;;;5003591;28;20037;-49
2023/11/05 01:25:58;;;;;;;0.52;0.30;;;;;;;;;;5031612;28;20063;-48
2023/11/05 01:28:25;;;;;;;0.93;0.65;;;;;;;;;;5009069;28;20030;-49
2023/11/05 01:30:51;;;;;;;0.75;0.75;;;;;;;;;;5012700;28;20022;-52
2023/11/05 01:33:17;;;;;;;0.60;0.60;;;;;;;;;;5009325;28;20087;-51
2023/11/05 01:35:44;;;;;;;0.80;0.80;;;;;;;;;;5030576;28;20321;-49
2023/11/05 01:38:10;;;;;;;1.30;0.85;;;;;;;;;;5014137;28;20038;-48
2023/11/05 01:40:36;;;;;;;3.45;1.13;;;;;;;;;;5025770;28;20025;-50
2023/11/05 01:43:02;;;;;;;1.20;1.10;;;;;;;;;;5013254;28;20399;-48
2023/11/05 01:45:29;;;;;;;1.77;0.90;;;;;;;;;;5015445;28;20091;-49
2023/11/05 01:47:55;;;;;;;1.70;1.55;;;;;;;;;;5014085;28;20534;-49
2023/11/05 01:50:23;;;;;;;1.20;1.10;;;;;;;;;;5027001;28;20506;-49
2023/11/05 01:52:54;;;;;;;0.90;0.90;;;;;;;;;;5011612;28;20022;-49
2023/11/05 01:55:21;;;;;;;1.88;1.20;;;;;;;;;;4977989;28;20072;-48
2023/11/05 01:57:47;;;;;;;1.02;0.98;;;;;;;;;;4994256;28;20384;-50
2023/11/05 02:00:14;;;;;;;1.52;1.10;;;;;;;;;;5025452;28;20030;-49
2023/11/05 02:02:41;;;;;;;3.50;1.80;;;;;;;;;;5011125;28;20030;-48
2023/11/05 02:05:08;;;;;;;1.50;1.20;;;;;;;;;;4995172;28;20500;-49
2023/11/05 02:07:35;;;;;;;2.40;1.48;;;;;;;;;;5011634;28;20029;-49
2023/11/05 02:10:02;;;;;;;2.93;2.63;;;;;;;;;;5024556;28;20026;-49
2023/11/05 02:12:28;;;;;;;2.70;2.50;;;;;;;;;;5017461;28;20347;-50
2023/11/05 02:14:55;;;;;;;3.53;3.15;;;;;;;;;;5024325;28;20034;-49
2023/11/05 02:17:21;;;;;;;3.50;3.20;;;;;;;;;;4982727;28;20404;-49
2023/11/05 02:19:48;;;;;;;4.25;3.85;;;;;;;;;;4982191;28;20073;-48
2023/11/05 02:22:15;;;;;;;4.20;3.80;;;;;;;;;;5003780;28;20125;-49
2023/11/05 02:24:45;;;;;;;3.97;3.67;;;;;;;;;;5032219;28;20025;-49
2023/11/05 02:27:11;;;;;;;4.40;4.00;;;;;;;;;;5002791;28;20022;-49
2023/11/05 02:29:38;;;;;;;4.07;3.73;;;;;;;;;;5000019;28;20032;-49
2023/11/05 02:32:04;;;;;;;4.20;3.80;;;;;;;;;;5018251;28;20275;-49
2023/11/05 02:34:31;;;;;;;3.70;3.40;;;;;;;;;;5020596;28;20029;-47
2023/11/05 02:36:58;;;;;;;4.07;3.70;;;;;;;;;;5054926;28;20032;-49
2023/11/05 02:39:25;;;;;;;4.80;4.15;;;;;;;;;;5037089;28;20029;-48
2023/11/05 02:41:52;;;;;;;4.15;3.83;;;;;;;;;;5054626;28;20037;-48
2023/11/05 02:44:18;;;;;;;5.40;4.78;;;;;;;;;;5054817;28;20075;-49
2023/11/05 02:46:45;;;;;;;7.20;6.50;;;;;;;;;;5054819;28;20056;-50
2023/11/05 02:49:12;;;;;;;9.40;6.80;;;;;;;;;;5054643;28;20048;-49
2023/11/05 02:51:38;;;;;;;8.55;7.53;;;;;;;;;;5020469;28;20266;-49
2023/11/05 02:54:05;;;;;;;8.18;7.38;;;;;;;;;;5020224;28;20025;-48
2023/11/05 02:56:31;;;;;;;9.10;8.15;;;;;;;;;;5020308;28;20029;-48
2023/11/05 02:58:57;;;;;;;11.45;8.63;;;;;;;;;;5036601;28;20029;-49
2023/11/05 03:01:24;;;;;;;9.77;8.77;;;;;;;;;;5015112;28;20051;-49
2023/11/05 03:03:54;;;;;;;9.27;8.38;;;;;;;;;;4999841;28;20041;-49
2023/11/05 03:06:20;;;;;;;9.48;8.48;;;;;;;;;;4998328;28;20030;-49
2023/11/05 03:08:46;;;;;;;9.20;8.20;;;;;;;;;;4980919;28;20057;-49
2023/11/05 03:11:13;;;;;;;8.57;7.70;;;;;;;;;;5014504;28;20030;-48
2023/11/05 03:13:39;;;;;;;8.60;7.80;;;;;;;;;;5029495;28;20091;-50
2023/11/05 03:16:08;;;;;;;10.48;8.25;;;;;;;;;;5030453;28;20045;-50
2023/11/05 03:18:34;;;;;;;7.85;7.00;;;;;;;;;;5013505;28;20041;-48
2023/11/05 03:21:00;;;;;;;8.27;6.60;;;;;;;;;;4997729;28;20030;-49
2023/11/05 03:23:26;;;;;;;8.63;6.88;;;;;;;;;;4996571;28;20109;-49
2023/11/05 03:25:53;;;;;;;7.82;6.95;;;;;;;;;;5012291;28;20079;-48
2023/11/05 03:28:19;;;;;;;6.97;6.10;;;;;;;;;;5015773;28;20018;-49
2023/11/05 03:30:46;;;;;;;6.63;6.03;;;;;;;;;;5031663;28;20032;-49
2023/11/05 03:33:12;;;;;;;7.38;6.68;;;;;;;;;;5032115;28;20025;-49
2023/11/05 03:35:39;;;;;;;8.27;6.75;;;;;;;;;;5029426;28;20057;-49
2023/11/05 03:38:05;;;;;;;7.40;6.60;;;;;;;;;;5032270;28;20476;-49
2023/11/05 03:40:31;;;;;;;6.40;5.78;;;;;;;;;;5003796;28;20036;-49
2023/11/05 03:42:57;;;;;;;6.50;5.88;;;;;;;;;;5022174;28;20030;-50
2023/11/05 03:45:23;;;;;;;7.10;6.40;;;;;;;;;;4998676;28;20129;-48
2023/11/05 03:47:49;;;;;;;10.27;6.60;;;;;;;;;;5033497;28;20384;-48
2023/11/05 03:50:16;;;;;;;7.22;6.45;;;;;;;;;;5020848;28;20498;-49
2023/11/05 03:52:42;;;;;;;14.80;6.35;;;;;;;;;;4997220;28;20062;-49
2023/11/05 03:55:09;;;;;;;7.18;6.43;;;;;;;;;;5014664;28;20037;-49
2023/11/05 03:57:35;;;;;;;6.95;6.25;;;;;;;;;;5033098;28;20025;-49
2023/11/05 04:00:02;;;;;;;6.85;6.15;;;;;;;;;;5013251;28;20427;-50
2023/11/05 04:02:28;;;;;;;8.02;6.57;;;;;;;;;;5016926;28;20034;-49
2023/11/05 04:04:54;;;;;;;8.30;7.50;;;;;;;;;;5000876;28;20028;-48
2023/11/05 04:07:21;;;;;;;8.77;6.90;;;;;;;;;;5031405;28;20067;-48
2023/11/05 04:09:47;;;;;;;10.95;8.80;;;;;;;;;;5031459;28;20021;-49
2023/11/05 04:12:13;;;;;;;9.45;8.50;;;;;;;;;;5030462;28;20065;-49
2023/11/05 04:14:40;;;;;;;11.10;8.70;;;;;;;;;;4996353;28;20056;-49
2023/11/05 04:17:06;;;;;;;10.60;9.13;;;;;;;;;;5008802;28;20087;-49
2023/11/05 04:19:32;;;;;;;10.10;9.05;;;;;;;;;;5024561;28;20031;-49
2023/11/05 04:21:59;;;;;;;10.23;9.20;;;;;;;;;;5052869;28;20037;-49
2023/11/05 04:24:25;;;;;;;10.93;9.83;;;;;;;;;;5051800;28;20049;-48
2023/11/05 04:26:51;;;;;;;11.63;10.20;;;;;;;;;;5051476;28;20021;-49
2023/11/05 04:29:17;;;;;;;12.68;11.32;;;;;;;;;;5051605;28;20028;-50
2023/11/05 04:31:43;;;;;;;11.63;10.32;;;;;;;;;;5051271;28;20029;-51
2023/11/05 04:34:09;;;;;;;13.65;12.23;;;;;;;;;;5051109;28;20028;-49
2023/11/05 04:36:42;;;;;;;13.35;11.82;;;;;;;;;;5051522;28;20074;-48
2023/11/05 04:39:08;;;;;;;14.45;12.43;;;;;;;;;;5051882;28;20025;-49
2023/11/05 04:41:34;;;;;;;14.77;12.90;;;;;;;;;;5052199;28;20506;-49
2023/11/05 04:44:00;;;;;;;17.77;13.82;;;;;;;;;;5052490;28;20086;-49
2023/11/05 04:46:27;;;;;;;15.40;13.40;;;;;;;;;;5052427;28;20037;-48
2023/11/05 04:48:53;;;;;;;18.13;14.75;;;;;;;;;;5034612;28;20484;-49
2023/11/05 04:51:19;;;;;;;14.60;12.73;;;;;;;;;;5052353;28;20053;-49
2023/11/05 04:53:46;;;;;;;15.20;12.75;;;;;;;;;;5052293;28;20040;-48
2023/11/05 04:56:16;;;;;;;17.42;13.45;;;;;;;;;;5043987;28;20115;-49
2023/11/05 04:58:42;;;;;;;16.35;12.43;;;;;;;;;;5031811;28;20060;-49
2023/11/05 05:01:08;;;;;;;14.32;12.15;;;;;;;;;;5026368;28;20076;-49
2023/11/05 05:03:35;;;;;;;13.68;9.82;;;;;;;;;;5016403;28;20033;-51
2023/11/05 05:06:01;;;;;;;11.65;10.27;;;;;;;;;;5031678;28;20097;-50
2023/11/05 05:08:27;;;;;;;11.18;9.50;;;;;;;;;;5023712;28;20018;-49
2023/11/05 05:10:53;;;;;;;11.95;9.75;;;;;;;;;;5013349;28;20034;-49
2023/11/05 05:13:19;;;;;;;12.05;10.48;;;;;;;;;;5014871;28;20036;-49
2023/11/05 05:15:45;;;;;;;10.95;9.55;;;;;;;;;;5016797;28;20027;-49
2023/11/05 05:18:11;;;;;;;11.30;10.02;;;;;;;;;;5012285;28;20029;-49
2023/11/05 05:20:38;;;;;;;11.50;9.30;;;;;;;;;;4994512;28;20087;-49
2023/11/05 05:23:04;;;;;;;10.85;9.75;;;;;;;;;;5031105;28;20022;-49
2023/11/05 05:25:30;;;;;;;11.95;10.13;;;;;;;;;;5030164;28;20021;-49
2023/11/05 05:27:56;;;;;;;11.63;10.43;;;;;;;;;;5023442;28;20064;-49
2023/11/05 05:30:22;;;;;;;12.85;11.25;;;;;;;;;;5029546;28;20033;-49
2023/11/05 05:32:49;;;;;;;12.27;10.65;;;;;;;;;;5031447;28;20518;-51
2023/11/05 05:35:15;;;;;;;12.32;11.00;;;;;;;;;;5031853;28;20082;-49
2023/11/05 05:37:41;;;;;;;13.98;12.30;;;;;;;;;;5030887;28;20033;-49
2023/11/05 05:40:08;;;;;;;14.65;11.50;;;;;;;;;;5029210;28;20034;-49
2023/11/05 05:42:34;;;;;;;11.85;10.65;;;;;;;;;;5014112;28;20400;-53
2023/11/05 05:45:02;;;;;;;13.45;12.05;;;;;;;;;;5012026;28;20030;-52
2023/11/05 05:47:29;;;;;;;16.30;12.68;;;;;;;;;;5031420;28;20104;-49
2023/11/05 05:49:56;;;;;;;14.50;13.00;;;;;;;;;;5031148;28;20030;-49
2023/11/05 05:52:22;;;;;;;13.48;12.13;;;;;;;;;;5013369;28;20034;-51
2023/11/05 05:54:48;;;;;;;13.73;12.05;;;;;;;;;;5029673;28;20058;-50
2023/11/05 05:57:15;;;;;;;15.60;13.88;;;;;;;;;;5002614;28;20033;-50
2023/11/05 05:59:41;;;;;;;16.58;13.63;;;;;;;;;;5027953;28;20547;-49
2023/11/05 06:02:07;;;;;;;17.63;15.60;;;;;;;;;;5014636;28;20116;-49
2023/11/05 06:04:36;;;;;;;17.02;15.07;;;;;;;;;;5020838;28;20033;-49
2023/11/05 06:07:03;;;;;;;18.02;15.68;;;;;;;;;;5031255;28;20490;-49
2023/11/05 06:09:29;;;;;;;20.05;16.20;;;;;;;;;;5019317;28;20068;-48
2023/11/05 06:11:56;;;;;;;21.45;19.30;;;;;;;;;;4995644;28;20025;-50
2023/11/05 06:14:22;;;;;;;21.73;18.98;;;;;;;;;;5020271;28;20034;-48
2023/11/05 06:16:48;;;;;;;18.05;15.55;;;;;;;;;;5007992;28;20045;-48
2023/11/05 06:19:15;;;;;;;17.30;15.50;;;;;;;;;;5001935;28;20030;-51
2023/11/05 06:21:44;;;;;;;19.70;15.27;;;;;;;;;;5049506;28;20056;-49
2023/11/05 06:24:11;;;;;;;16.52;14.77;;;;;;;;;;5051191;28;20029;-49
2023/11/05 06:26:38;;;;;;;18.65;15.90;;;;;;;;;;5051284;28;20033;-50
2023/11/05 06:29:04;;;;;;;17.08;15.27;;;;;;;;;;5051360;28;20025;-49
2023/11/05 06:31:31;;;;;;;18.05;16.15;;;;;;;;;;5051164;28;20036;-50
2023/11/05 06:33:57;;;;;;;18.27;16.17;;;;;;;;;;5018469;28;20025;-49
2023/11/05 06:36:24;;;;;;;17.83;15.30;;;;;;;;;;5020074;28;20025;-49
2023/11/05 06:38:50;;;;;;;17.55;15.75;;;;;;;;;;5051091;28;20430;-49
2023/11/05 06:41:17;;;;;;;16.98;15.02;;;;;;;;;;5050961;28;20033;-49
2023/11/05 06:43:43;;;;;;;15.85;14.15;;;;;;;;;;5033306;28;20063;-52
2023/11/05 06:46:09;;;;;;;17.60;15.48;;;;;;;;;;5051110;28;20025;-49
2023/11/05 06:48:36;;;;;;;16.38;14.60;;;;;;;;;;5050034;28;20067;-49
2023/11/05 06:51:02;;;;;;;16.80;14.38;;;;;;;;;;5011265;28;20038;-49
2023/11/05 06:53:29;;;;;;;18.48;14.48;;;;;;;;;;5017174;28;20108;-49
2023/11/05 06:55:56;;;;;;;17.27;14.60;;;;;;;;;;5026551;28;20029;-50
2023/11/05 06:58:22;;;;;;;17.05;14.20;;;;;;;;;;5013803;28;20037;-49
2023/11/05 07:00:48;;;;;;;17.80;15.67;;;;;;;;;;5012582;28;20045;-49
2023/11/05 07:03:14;;;;;;;17.80;15.30;;;;;;;;;;5001411;28;20018;-49
2023/11/05 07:05:41;;;;;;;16.27;14.57;;;;;;;;;;5034814;28;20022;-49
2023/11/05 07:08:07;;;;;;;17.80;15.90;;;;;;;;;;5033993;28;20041;-50
2023/11/05 07:10:33;;;;;;;16.45;14.73;;;;;;;;;;5012077;28;20022;-48
2023/11/05 07:12:59;;;;;;;16.93;15.13;;;;;;;;;;5026421;28;20042;-49
2023/11/05 07:15:25;;;;;;;16.63;14.77;;;;;;;;;;5030968;28;20143;-50
2023/11/05 07:17:53;;;;;;;20.08;15.38;;;;;;;;;;5015078;28;20037;-49
2023/11/05 07:20:19;;;;;;;16.67;14.32;;;;;;;;;;5038872;28;20116;-49
2023/11/05 07:22:46;;;;;;;15.10;13.50;;;;;;;;;;5022839;28;20031;-49
2023/11/05 07:25:13;;;;;;;16.25;14.00;;;;;;;;;;5015927;28;20021;-48
2023/11/05 07:27:40;;;;;;;14.63;12.30;;;;;;;;;;5031260;28;20026;-48
2023/11/05 07:30:06;;;;;;;13.80;12.40;;;;;;;;;;4996700;28;20491;-49
2023/11/05 07:32:33;;;;;;;14.00;11.48;;;;;;;;;;5008390;28;20027;-49
2023/11/05 07:34:59;;;;;;;15.03;11.23;;;;;;;;;;5029569;28;20029;-49
2023/11/05 07:37:27;;;;;;;12.18;10.90;;;;;;;;;;4996363;28;20034;-49
2023/11/05 07:39:54;;;;;;;13.45;10.20;;;;;;;;;;5014842;28;20053;-49
2023/11/05 07:42:21;;;;;;;11.37;10.27;;;;;;;;;;5016371;28;20041;-48
2023/11/05 07:44:47;;;;;;;12.00;10.70;;;;;;;;;;5012909;28;20471;-47
2023/11/05 07:47:14;;;;;;;10.80;9.68;;;;;;;;;;5016106;28;20026;-49
2023/11/05 07:49:43;;;;;;;12.20;9.95;;;;;;;;;;5024649;28;20029;-48
2023/11/05 07:52:11;;;;;;;10.60;9.60;;;;;;;;;;5033568;28;20025;-49
2023/11/05 07:54:38;;;;;;;10.35;9.25;;;;;;;;;;5024944;28;20377;-48
2023/11/05 07:57:06;;;;;;;11.20;9.65;;;;;;;;;;4996447;28;20034;-49
2023/11/05 07:59:32;;;;;;;9.10;8.20;;;;;;;;;;4996336;28;20667;-49
2023/11/05 08:01:58;;;;;;;9.50;8.50;;;;;;;;;;5007613;28;20033;-50
2023/11/05 08:04:26;;;;;;;10.82;9.73;;;;;;;;;;5028960;28;20279;-49
2023/11/05 08:06:54;;;;;;;11.88;9.38;;;;;;;;;;5013783;28;20022;-52
2023/11/05 08:09:21;;;;;;;12.17;9.77;;;;;;;;;;5013695;28;20503;-51
2023/11/05 08:11:51;;;;;;;10.32;8.82;;;;;;;;;;5004123;28;20613;-48
2023/11/05 08:14:20;;;;;;;8.93;8.02;;;;;;;;;;5053296;28;20119;-50
2023/11/05 08:16:50;;;;;;;9.98;8.98;;;;;;;;;;5053191;28;20108;-49
2023/11/05 08:19:18;;;;;;;8.05;7.32;;;;;;;;;;5053312;28;20076;-48
2023/11/05 08:21:44;;;;;;;7.10;6.40;;;;;;;;;;5050325;28;20033;-49
2023/11/05 08:24:11;;;;;;;6.95;5.53;;;;;;;;;;5026232;28;20115;-50
2023/11/05 08:26:39;;;;;;;6.55;5.95;;;;;;;;;;5053074;28;20035;-49
2023/11/05 08:29:06;;;;;;;7.20;6.50;;;;;;;;;;5052997;28;20021;-48
2023/11/05 08:31:32;;;;;;;6.78;6.10;;;;;;;;;;5052747;28;20040;-48
2023/11/05 08:33:59;;;;;;;6.95;6.25;;;;;;;;;;5052816;28;20457;-48
2023/11/05 08:36:26;;;;;;;9.35;5.68;;;;;;;;;;5035214;28;20051;-49
2023/11/05 08:38:52;;;;;;;6.35;5.72;;;;;;;;;;5052933;28;20373;-50
2023/11/05 08:41:19;;;;;;;6.80;6.10;;;;;;;;;;5045561;28;21115;-47
2023/11/05 08:43:47;;;;;;;7.13;6.13;;;;;;;;;;5014133;28;20104;-49
2023/11/05 08:46:13;;;;;;;;;;;;;;;;;;5016679;28;20446;-50
2023/11/05 08:48:40;;;;;;;6.40;5.47;;;;;;;;;;5052676;28;19909;-49
2023/11/05 08:51:06;;;;;;;6.90;5.60;;;;;;;;;;5052612;28;20067;-48
2023/11/05 08:53:33;;;;;;;5.77;5.27;;;;;;;;;;5052571;28;20035;-47
2023/11/05 08:56:00;;;;;;;5.78;4.95;;;;;;;;;;5052155;28;20083;-49
2023/11/05 08:58:26;;;;;;;6.07;5.50;;;;;;;;;;5052562;28;20107;-50
2023/11/05 09:00:56;;;;;;;5.63;4.93;;;;;;;;;;5034431;28;20033;-49
2023/11/05 09:03:23;;;;;;;4.57;4.10;;;;;;;;;;5034456;28;20530;-50
2023/11/05 09:05:51;;;;;;;8.63;5.53;;;;;;;;;;5038659;28;20036;-49
2023/11/05 09:08:18;;;;;;;5.00;4.50;;;;;;;;;;5045834;28;20017;-48
2023/11/05 09:10:44;;;;;;;9.27;4.97;;;;;;;;;;5033827;28;20513;-48
2023/11/05 09:13:10;;;;;;;6.60;4.10;;;;;;;;;;5027535;28;20117;-48
2023/11/05 09:15:39;;;;;;;4.78;3.85;;;;;;;;;;5032010;28;20034;-48
2023/11/05 09:18:07;;;;;;;4.63;4.22;;;;;;;;;;5032067;28;20091;-48
2023/11/05 09:20:34;;;;;;;7.80;4.10;;;;;;;;;;5031408;28;20025;-49
2023/11/05 09:23:00;;;;;;;4.43;3.90;;;;;;;;;;5031951;28;20068;-49
2023/11/05 09:25:27;;;;;;;4.88;4.40;;;;;;;;;;5026050;28;20399;-49
2023/11/05 09:27:54;;;;;;;;;;;;;;;;;;5025217;28;20024;-48
2023/11/05 09:30:26;;;;;;;8.13;4.22;;;;;;;;;;5031941;28;19908;-48
2023/11/05 09:32:57;;;;;;;6.63;3.97;;;;;;;;;;5026827;28;20030;-47
2023/11/05 09:35:26;;;;;;;;;;;;;;;;;;5012670;28;20117;-48
2023/11/05 09:37:58;;;;;;;6.13;4.07;;;;;;;;;;5012213;28;19913;-48
2023/11/05 09:40:24;;;;;;;3.13;2.83;;;;;;;;;;5016358;28;20098;-49
2023/11/05 09:43:01;;;;;;;4.40;3.80;;;;;;;;;;4995591;28;20030;-49
2023/11/05 09:45:33;;;;;;;3.70;3.35;;;;;;;;;;5028086;28;20025;-48
2023/11/05 09:48:11;;;;;;;4.57;3.75;;;;;;;;;;5000151;28;20034;-49
2023/11/05 09:50:38;;;;;;;4.93;4.15;;;;;;;;;;5012050;28;20153;-49
2023/11/05 09:53:06;;;;;;;5.88;4.10;;;;;;;;;;5011884;28;20401;-48
2023/11/05 09:55:33;;;;;;;4.40;3.10;;;;;;;;;;5011930;28;20034;-48
2023/11/05 09:58:01;;;;;;;3.58;3.28;;;;;;;;;;5011930;28;20040;-49
2023/11/05 10:00:27;;;;;;;4.15;3.45;;;;;;;;;;5011824;28;20030;-49
2023/11/05 10:02:55;;;;;;;4.38;3.28;;;;;;;;;;5011719;28;20030;-49
2023/11/05 10:05:22;;;;;;;4.50;3.33;;;;;;;;;;5011756;28;20408;-49
2023/11/05 10:07:48;;;;;;;3.90;3.22;;;;;;;;;;5011849;28;20108;-50
2023/11/05 10:10:15;;;;;;;3.92;3.60;;;;;;;;;;5011870;28;20036;-48
2023/11/05 10:12:41;;;;;;;5.22;4.25;;;;;;;;;;5026456;28;20381;-49
2023/11/05 10:15:08;;;;;;;3.43;3.13;;;;;;;;;;5064970;22;20052;-50
2023/11/05 10:17:34;;;;;;;4.70;3.17;;;;;;;;;;5051353;28;20032;-48
2023/11/05 10:20:01;;;;;;;3.70;3.40;;;;;;;;;;5050124;28;20055;-51
2023/11/05 10:22:27;;;;;;;3.60;3.30;;;;;;;;;;5051115;28;20041;-51
2023/11/05 10:24:53;;;;;;;3.92;3.53;;;;;;;;;;5049922;28;20033;-52
2023/11/05 10:27:30;;;;;;;4.45;3.67;;;;;;;;;;5051430;28;20021;-49
2023/11/05 10:29:57;;;;;;;3.67;3.38;;;;;;;;;;5051421;28;20075;-49
2023/11/05 10:32:24;;;;;;;2.85;2.65;;;;;;;;;;5051082;28;20039;-52
2023/11/05 10:34:51;;;;;;;6.35;3.67;;;;;;;;;;5051346;28;20029;-48
2023/11/05 10:37:17;;;;;;;;;;;;;;;;;;5055616;28;20683;-48
2023/11/05 10:39:43;;;;;;;6.05;2.97;;;;;;;;;;5055020;28;20517;-53
2023/11/05 10:42:13;;;;;;;2.95;2.65;;;;;;;;;;5036901;28;20036;-50
2023/11/05 10:44:40;;;;;;;3.28;2.65;;;;;;;;;;5053871;28;20029;-49
2023/11/05 10:47:07;;;;;;;3.20;2.80;;;;;;;;;;5054771;28;20029;-52
2023/11/05 10:49:34;;;;;;;3.33;2.60;;;;;;;;;;5054309;28;20025;-52
2023/11/05 10:52:02;;;;;;;3.50;2.20;;;;;;;;;;5054731;28;20028;-49
2023/11/05 10:54:28;;;;;;;2.65;2.45;;;;;;;;;;5054688;28;20032;-49
2023/11/05 10:56:55;;;;;;;3.25;2.95;;;;;;;;;;5053825;28;20036;-48
2023/11/05 10:59:39;;;;;;;3.50;2.55;;;;;;;;;;5053377;28;20032;-51
2023/11/05 11:02:06;;;;;;;3.75;2.90;;;;;;;;;;5054309;28;20056;-52
2023/11/05 11:04:32;;;;;;;3.33;2.60;;;;;;;;;;5036509;28;20155;-53
2023/11/05 11:06:59;;;;;;;6.30;2.60;;;;;;;;;;5054549;28;20263;-49
2023/11/05 11:09:27;;;;;;;3.05;2.78;;;;;;;;;;5036491;28;20266;-50
2023/11/05 11:12:16;;;;;;;3.08;2.78;;;;;;;;;;5054300;28;20044;-49
2023/11/05 11:14:42;;;;;;;3.08;2.80;;;;;;;;;;5052610;28;20044;-49
2023/11/05 11:17:17;;;;;;;6.60;3.00;;;;;;;;;;5053088;28;20460;-49
2023/11/05 11:19:43;;;;;;;2.53;2.33;;;;;;;;;;5054220;28;20039;-48
2023/11/05 11:22:10;;;;;;;3.13;2.30;;;;;;;;;;5052773;28;20036;-49
2023/11/05 11:24:38;;;;;;;3.08;2.55;;;;;;;;;;5052980;28;20469;-52
2023/11/05 11:27:05;;;;;;;;;;;;;;;;;;5053476;28;20335;-48
2023/11/05 11:29:35;;;;;;;2.38;2.17;;;;;;;;;;5054583;28;19976;-50
2023/11/05 11:32:02;;;;;;;2.95;2.65;;;;;;;;;;5053832;28;20078;-49
2023/11/05 11:34:29;;;;;;;2.53;2.33;;;;;;;;;;5052821;28;20032;-53
2023/11/05 11:36:58;;;;;;;4.23;2.87;;;;;;;;;;5053937;28;20063;-50
2023/11/05 11:39:26;;;;;;;2.38;2.17;;;;;;;;;;5052663;28;20033;-52
2023/11/05 11:41:53;;;;;;;2.50;2.30;;;;;;;;;;5054133;28;20105;-52
2023/11/05 11:44:20;;;;;;;2.95;1.90;;;;;;;;;;5054174;28;20017;-51
2023/11/05 11:46:47;;;;;;;5.95;3.78;;;;;;;;;;5053022;28;20055;-49
2023/11/05 11:49:13;;;;;;;2.92;2.63;;;;;;;;;;5052566;28;20021;-49
2023/11/05 11:51:40;;;;;;;3.78;2.13;;;;;;;;;;5053540;28;20483;-49
2023/11/05 11:54:06;;;;;;;2.40;2.05;;;;;;;;;;5053509;28;20043;-51
2023/11/05 11:56:32;;;;;;;2.78;1.75;;;;;;;;;;5052461;28;20025;-49
2023/11/05 11:59:06;;;;;;;2.13;1.95;;;;;;;;;;5052382;28;20043;-50
2023/11/05 12:01:33;;;;;;;2.72;1.77;;;;;;;;;;5035430;28;20036;-50
2023/11/05 12:04:00;;;;;;;2.40;2.00;;;;;;;;;;5053288;28;20021;-49
2023/11/05 12:06:27;;;;;;;2.92;1.83;;;;;;;;;;5052126;28;20486;-47
2023/11/05 12:08:54;;;;;;;2.45;1.98;;;;;;;;;;5052069;28;20482;-48
2023/11/05 12:11:22;;;;;;;2.55;1.67;;;;;;;;;;5051799;28;20452;-47
2023/11/05 12:13:48;;;;;;;2.42;1.98;;;;;;;;;;5047014;28;20029;-48
2023/11/05 12:16:17;;;;;;;1.50;1.40;;;;;;;;;;5008537;28;20179;-48
2023/11/05 12:18:43;;;;;;;1.90;1.73;;;;;;;;;;5034745;28;20026;-47
2023/11/05 12:21:13;;;;;;;1.85;1.75;;;;;;;;;;5017679;28;20127;-47
2023/11/05 12:23:43;;;;;;;1.98;1.77;;;;;;;;;;5020360;28;20077;-48
2023/11/05 12:26:10;;;;;;;1.85;1.63;;;;;;;;;;5052649;28;20391;-50
2023/11/05 12:28:36;;;;;;;;;;;;;;;;;;5053408;28;20036;-46
2023/11/05 12:31:03;;;;;;;1.58;1.48;;;;;;;;;;5052092;28;20017;-49
2023/11/05 12:33:37;;;;;;;2.20;1.52;;;;;;;;;;5033277;28;20040;-48
2023/11/05 12:36:03;;;;;;;2.17;1.55;;;;;;;;;;5033933;28;20360;-47
2023/11/05 12:38:30;;;;;;;1.45;1.35;;;;;;;;;;5032859;28;20040;-52
2023/11/05 12:40:56;;;;;;;1.60;1.50;;;;;;;;;;5032598;28;20083;-48
2023/11/05 12:43:23;;;;;;;1.02;0.93;;;;;;;;;;5014890;28;20522;-46
2023/11/05 12:45:55;;;;;;;3.15;1.38;;;;;;;;;;5015225;28;20029;-53
2023/11/05 12:48:25;;;;;;;1.70;1.60;;;;;;;;;;5015118;28;20065;-47
2023/11/05 12:50:51;;;;;;;1.45;1.25;;;;;;;;;;5018515;28;20100;-46
2023/11/05 12:53:20;;;;;;;1.67;1.58;;;;;;;;;;5014935;28;20419;-52
2023/11/05 12:55:46;;;;;;;2.08;1.30;;;;;;;;;;5049028;28;20510;-50
2023/11/05 12:58:12;;;;;;;1.42;1.30;;;;;;;;;;5031851;28;20049;-51
2023/11/05 13:00:40;;;;;;;1.75;1.17;;;;;;;;;;5042813;28;20526;-50
2023/11/05 13:03:10;;;;;;;2.55;1.40;;;;;;;;;;5032009;28;20511;-51
2023/11/05 13:05:41;;;;;;;1.60;1.50;;;;;;;;;;5054968;28;20029;-52
2023/11/05 13:08:09;;;;;;;2.78;1.50;;;;;;;;;;5049672;28;20033;-50
2023/11/05 13:10:39;;;;;;;1.33;1.20;;;;;;;;;;5041405;28;20021;-51
2023/11/05 13:13:05;;;;;;;1.73;1.60;;;;;;;;;;5032466;28;20056;-49
2023/11/05 13:15:33;;;;;;;1.70;1.60;;;;;;;;;;5030179;28;20025;-47
2023/11/05 13:18:00;;;;;;;1.52;1.42;;;;;;;;;;5038679;28;20025;-48
2023/11/05 13:20:26;;;;;;;1.63;1.52;;;;;;;;;;5039336;28;20025;-51
2023/11/05 13:22:52;;;;;;;2.30;1.65;;;;;;;;;;5033741;28;20032;-49
2023/11/05 13:25:18;;;;;;;1.42;1.33;;;;;;;;;;5051165;28;20024;-54
2023/11/05 13:27:44;;;;;;;2.50;1.42;;;;;;;;;;5032296;28;20033;-50
2023/11/05 13:30:12;;;;;;;1.30;1.05;;;;;;;;;;5051248;28;20029;-48
2023/11/05 13:32:40;;;;;;;1.50;1.40;;;;;;;;;;5031874;28;20053;-53
2023/11/05 13:35:07;;;;;;;1.90;1.30;;;;;;;;;;5031576;28;20029;-51
2023/11/05 13:37:33;;;;;;;2.17;1.40;;;;;;;;;;5040928;28;20029;-52
2023/11/05 13:40:00;;;;;;;1.75;1.40;;;;;;;;;;5051458;28;20087;-51
2023/11/05 13:42:26;;;;;;;1.35;1.25;;;;;;;;;;5051463;28;20037;-47
2023/11/05 13:44:52;;;;;;;2.20;1.90;;;;;;;;;;5025576;28;20554;-51
2023/11/05 13:47:19;;;;;;;2.08;1.67;;;;;;;;;;5062503;28;20032;-52
2023/11/05 13:49:45;;;;;;;2.35;1.73;;;;;;;;;;5053719;28;20502;-48
2023/11/05 13:52:14;;;;;;;1.55;1.45;;;;;;;;;;5053308;28;20044;-48
2023/11/05 13:54:42;;;;;;;2.38;1.90;;;;;;;;;;5023785;28;20087;-47
2023/11/05 13:57:12;;;;;;;2.90;1.73;;;;;;;;;;5032674;28;20034;-50
2023/11/05 13:59:45;;;;;;;1.95;1.50;;;;;;;;;;5031000;28;20478;-49
2023/11/05 14:02:14;;;;;;;3.05;1.90;;;;;;;;;;5029824;28;20037;-49
2023/11/05 14:04:45;;;;;;;2.88;1.92;;;;;;;;;;5037294;28;20029;-49
2023/11/05 14:07:15;;;;;;;2.72;1.45;;;;;;;;;;5045270;28;20487;-47
2023/11/05 14:09:47;;;;;;;1.80;1.50;;;;;;;;;;5037605;28;20249;-46
2023/11/05 14:12:17;;;;;;;2.70;1.63;;;;;;;;;;5034166;28;20040;-49
2023/11/05 14:14:48;;;;;;;1.88;1.50;;;;;;;;;;5034337;28;20097;-50
2023/11/05 14:17:18;;;;;;;2.08;1.58;;;;;;;;;;5040166;28;20044;-47
2023/11/05 14:19:46;;;;;;;1.63;1.52;;;;;;;;;;5034242;28;20041;-48
2023/11/05 14:22:16;;;;;;;2.05;1.70;;;;;;;;;;5034106;28;20045;-49
2023/11/05 14:24:46;;;;;;;2.10;1.90;;;;;;;;;;5034197;28;20030;-47
2023/11/05 14:27:21;;;;;;;2.25;1.75;;;;;;;;;;5033791;28;20029;-49
2023/11/05 14:29:51;;;;;;;2.15;1.38;;;;;;;;;;5049394;28;20166;-51
2023/11/05 14:32:20;;;;;;;4.03;2.05;;;;;;;;;;5050210;28;20041;-52
2023/11/05 14:34:48;;;;;;;1.90;1.70;;;;;;;;;;5035106;28;20060;-53
2023/11/05 14:37:19;;;;;;;1.88;1.63;;;;;;;;;;5054077;28;20028;-50